Time;durP1;ratioP1;P1;durP2;ratioP2;P2;SDS_P1;SDS_P2;PMS_P1;PMS_P2;Temp;Humidity;BMP_temperature;BMP_pressure;BME280_temperature;BME280_humidity;BME280_pressure;Samples;Min_cycle;Max_cycle;Signal;HPM_P1;HPM_P2
2022/04/20 00:02:13;;;;;;;10.02;6.28;;;8.50;1.00;;;8.43;100.00;98444.78;5001902;28;129831;-78
2022/04/20 00:04:42;;;;;;;9.52;6.40;;;8.40;1.00;;;8.23;100.00;98440.03;5001889;28;119225;-75
2022/04/20 00:07:10;;;;;;;12.45;7.00;;;8.30;1.00;;;8.27;100.00;98446.38;4985859;28;118596;-72
2022/04/20 00:09:39;;;;;;;10.73;7.25;;;8.30;1.00;;;8.14;100.00;98445.44;5000437;28;130011;-78
2022/04/20 00:12:09;;;;;;;10.65;7.28;;;8.20;21.20;;;8.17;100.00;98447.50;5006100;28;128449;-74
2022/04/20 00:14:37;;;;;;;12.90;7.75;;;8.20;47.30;;;8.05;100.00;98439.25;5000661;28;119614;-76
2022/04/20 00:17:09;;;;;;;12.52;7.85;;;8.20;64.20;;;8.05;100.00;98444.66;5000349;28;119347;-78
2022/04/20 00:19:39;;;;;;;10.88;7.47;;;8.20;78.40;;;8.04;100.00;98445.78;4998910;28;130531;-78
2022/04/20 00:22:08;;;;;;;11.65;7.75;;;8.20;94.80;;;8.03;100.00;98449.59;5000354;28;129308;-76
2022/04/20 00:24:36;;;;;;;11.80;7.80;;;8.20;99.90;;;7.98;100.00;98444.34;5001374;28;119720;-80
2022/04/20 00:27:06;;;;;;;12.85;8.43;;;8.10;99.90;;;7.94;100.00;98441.50;5000205;28;119351;-80
2022/04/20 00:29:35;;;;;;;11.95;8.48;;;8.10;99.90;;;7.95;100.00;98442.28;5002824;28;130365;-79
2022/04/20 00:32:03;;;;;;;12.80;8.30;;;8.10;99.90;;;7.90;100.00;98444.06;5000087;28;130061;-81
2022/04/20 00:34:32;;;;;;;12.20;8.40;;;8.10;99.90;;;7.90;100.00;98443.28;4986599;28;118955;-74
2022/04/20 00:37:02;;;;;;;13.07;9.23;;;8.10;99.90;;;7.84;100.00;98445.34;4985366;28;118853;-77
2022/04/20 00:39:31;;;;;;;14.48;9.65;;;8.10;99.90;;;7.88;100.00;98442.78;5000838;28;130134;-79
2022/04/20 00:41:59;;;;;;;14.00;9.55;;;8.00;99.90;;;7.90;100.00;98448.69;4983896;28;129732;-75
2022/04/20 00:44:29;;;;;;;15.60;10.18;;;8.00;99.90;;;7.81;100.00;98456.78;4982864;28;121649;-78
2022/04/20 00:46:58;;;;;;;13.80;9.57;;;8.00;99.90;;;7.89;100.00;98447.88;4981846;28;120767;-76
2022/04/20 00:49:29;;;;;;;16.73;10.20;;;8.00;99.90;;;7.84;100.00;98452.66;4981632;28;129820;-79
2022/04/20 00:51:59;;;;;;;14.20;10.32;;;8.00;99.90;;;7.80;100.00;98452.47;5000529;28;128710;-77
2022/04/20 00:54:31;;;;;;;16.17;11.05;;;8.00;99.90;;;7.72;100.00;98442.47;4999970;28;118798;-78
2022/04/20 00:57:01;;;;;;;17.08;11.48;;;8.00;99.90;;;7.70;100.00;98448.19;4967551;28;118740;-77
2022/04/20 00:59:36;;;;;;;16.67;12.15;;;7.90;99.90;;;7.72;100.00;98454.06;4983948;28;130220;-76
2022/04/20 01:02:05;;;;;;;17.42;11.80;;;7.90;99.90;;;7.74;100.00;98451.84;4979671;28;129706;-77
2022/04/20 01:04:35;;;;;;;18.17;11.82;;;7.90;99.90;;;7.71;100.00;98446.28;4995982;28;119717;-79
2022/04/20 01:07:40;;;;;;;15.50;11.60;;;7.90;99.90;;;7.77;100.00;98438.81;4979117;28;120340;-78
2022/04/20 01:10:48;;;;;;;18.30;11.77;;;7.90;99.90;;;7.66;100.00;98443.75;4980330;28;129719;-77
2022/04/20 01:13:49;;;;;;;18.70;11.95;;;7.90;99.90;;;7.70;100.00;98447.41;4981155;28;129813;-76
2022/04/20 01:16:33;;;;;;;18.90;12.48;;;7.90;99.90;;;7.78;100.00;98441.19;4980715;28;118951;-78
2022/04/20 01:19:15;;;;;;;21.67;13.82;;;7.90;99.90;;;7.74;100.00;98451.03;4986616;28;119535;-79
2022/04/20 01:21:58;;;;;;;18.67;13.50;;;7.90;99.90;;;7.76;100.00;98453.44;4981134;28;130299;-79
2022/04/20 01:24:45;;;;;;;21.17;14.10;;;7.90;99.90;;;7.64;100.00;98440.56;4987680;28;128821;-78
2022/04/20 01:27:31;;;;;;;22.13;14.07;;;7.90;99.90;;;7.74;100.00;98430.25;4974020;28;119135;-78
2022/04/20 01:30:18;;;;;;;19.50;14.00;;;7.90;99.90;;;7.77;100.00;98436.91;4986537;28;119734;-75
2022/04/20 01:33:22;;;;;;;23.85;14.95;;;7.80;99.90;;;7.74;100.00;98430.25;4979723;28;129480;-76
2022/04/20 01:35:53;;;;;;;21.05;14.50;;;7.90;99.90;;;7.70;100.00;98428.50;4981885;28;130291;-76
2022/04/20 01:38:23;;;;;;;22.40;15.27;;;7.90;99.90;;;7.68;100.00;98426.13;5001248;28;122003;-80
2022/04/20 01:40:53;;;;;;;23.02;15.43;;;7.90;99.90;;;7.69;100.00;98426.91;4985982;28;121531;-77
2022/04/20 01:43:22;;;;;;;21.92;15.57;;;7.90;99.90;;;7.63;100.00;98433.56;4984363;28;129636;-73
2022/04/20 01:46:07;;;;;;;23.75;15.75;;;7.90;99.90;;;7.66;100.00;98425.63;4985029;28;128701;-76
2022/04/20 01:48:52;;;;;;;27.13;16.65;;;7.90;99.90;;;7.77;100.00;98418.00;4990526;28;120166;-78
2022/04/20 01:51:54;;;;;;;;;;;7.90;99.90;;;7.72;100.00;98420.88;4967557;28;119455;-77
2022/04/20 01:54:47;;;;;;;24.20;15.07;;;7.90;99.90;;;7.59;100.00;98419.94;4983827;28;130327;-75
2022/04/20 01:57:34;;;;;;;24.33;16.17;;;7.80;99.90;;;7.72;100.00;98415.47;4982056;28;129330;-76
2022/04/20 02:00:34;;;;;;;26.60;16.33;;;7.90;99.90;;;7.70;100.00;98404.97;4984141;28;119866;-76
2022/04/20 02:03:22;;;;;;;28.95;16.25;;;7.90;99.90;;;7.76;100.00;98411.03;4979690;28;118617;-76
2022/04/20 02:06:11;;;;;;;23.00;16.30;;;7.90;99.90;;;7.83;100.00;98422.13;4982290;28;129963;-75
2022/04/20 02:08:48;;;;;;;23.52;15.82;;;7.90;99.90;;;7.71;100.00;98430.88;4982326;28;129661;-76
2022/04/20 02:11:47;;;;;;;28.90;16.75;;;7.90;99.90;;;7.88;100.00;98435.50;4981872;28;119596;-78
2022/04/20 02:14:29;;;;;;;23.83;16.85;;;7.90;99.90;;;7.74;100.00;98429.44;5000442;28;118975;-74
2022/04/20 02:17:08;;;;;;;27.60;17.40;;;7.90;99.90;;;7.81;100.00;98427.06;4984236;28;129775;-77
2022/04/20 02:19:40;;;;;;;25.08;15.60;;;7.90;99.90;;;7.77;100.00;98434.19;4980035;28;130591;-72
2022/04/20 02:22:17;;;;;;;25.40;16.38;;;7.90;99.90;;;7.73;100.00;98427.88;4983430;28;119710;-74
2022/04/20 02:24:46;;;;;;;26.70;16.92;;;7.90;99.90;;;7.86;100.00;98431.50;4983776;28;118770;-76
2022/04/20 02:27:16;;;;;;;27.95;17.23;;;7.90;99.90;;;7.69;100.00;98433.09;4984860;28;129852;-77
2022/04/20 02:29:47;;;;;;;26.73;16.73;;;8.00;99.90;;;7.66;100.00;98432.94;4985853;28;129909;-77
2022/04/20 02:32:17;;;;;;;26.67;17.15;;;7.90;99.90;;;7.64;100.00;98427.06;5001807;28;122341;-79
2022/04/20 02:34:46;;;;;;;25.13;17.13;;;7.90;99.90;;;7.67;100.00;98424.53;4985502;28;120589;-75
2022/04/20 02:37:14;;;;;;;26.13;16.58;;;7.90;99.90;;;7.67;100.00;98438.03;4984485;28;130405;-75
2022/04/20 02:39:44;;;;;;;25.80;17.77;;;7.90;99.90;;;7.61;100.00;98436.59;4968386;28;129380;-80
2022/04/20 02:42:16;;;;;;;29.27;17.63;;;7.90;99.90;;;7.62;100.00;98437.38;4985589;28;119302;-77
2022/04/20 02:44:45;;;;;;;29.85;17.77;;;7.90;99.90;;;7.61;100.00;98435.81;4987671;28;122607;-80
2022/04/20 02:47:16;;;;;;;24.33;16.20;;;7.90;99.90;;;7.58;100.00;98426.44;4986809;28;128766;-73
2022/04/20 02:49:44;;;;;;;27.00;18.27;;;7.90;99.90;;;7.69;100.00;98437.72;4981665;28;129290;-79
2022/04/20 02:52:13;;;;;;;26.52;16.92;;;7.90;99.90;;;7.65;100.00;98442.16;4967711;28;118792;-77
2022/04/20 02:54:41;;;;;;;29.88;17.52;;;7.90;99.90;;;7.77;100.00;98438.81;4983809;28;118406;-80
2022/04/20 02:57:10;;;;;;;27.13;16.85;;;7.90;99.90;;;7.74;100.00;98440.25;4980613;28;129411;-80
2022/04/20 02:59:39;;;;;;;25.85;17.30;;;7.90;99.90;;;7.64;100.00;98445.97;4999328;28;129586;-76
2022/04/20 03:02:08;;;;;;;28.48;17.67;;;7.90;99.90;;;7.80;100.00;98452.47;4985447;28;119671;-76
2022/04/20 03:04:43;;;;;;;30.55;19.75;;;7.90;99.90;;;7.73;100.00;98449.47;4982355;28;119584;-75
2022/04/20 03:07:13;;;;;;;28.75;18.80;;;7.80;99.90;;;7.66;100.00;98449.16;4986330;28;129344;-75
2022/04/20 03:09:49;;;;;;;32.25;19.67;;;7.80;99.90;;;7.58;100.00;98449.94;4984205;28;129593;-72
2022/04/20 03:12:19;;;;;;;32.03;20.67;;;7.80;99.90;;;7.64;100.00;98437.88;4983512;28;118867;-78
2022/04/20 03:14:55;;;;;;;29.63;19.02;;;7.80;99.90;;;7.54;100.00;98450.56;4983911;28;119729;-76
2022/04/20 03:17:26;;;;;;;34.88;20.05;;;7.80;99.90;;;7.61;100.00;98442.00;4979832;28;130186;-76
2022/04/20 03:19:55;;;;;;;32.15;20.10;;;7.80;99.90;;;7.52;100.00;98444.69;4983786;28;129727;-73
2022/04/20 03:22:25;;;;;;;29.65;18.33;;;7.80;99.90;;;7.56;100.00;98450.25;4978977;28;121890;-76
2022/04/20 03:24:53;;;;;;;34.10;20.70;;;7.80;99.90;;;7.53;100.00;98446.28;4983838;28;120780;-78
2022/04/20 03:27:22;;;;;;;35.28;20.95;;;7.80;99.90;;;7.59;100.00;98449.63;4981680;28;129939;-75
2022/04/20 03:29:59;;;;;;;38.00;21.88;;;7.70;99.90;;;7.43;100.00;98446.56;4980756;28;129748;-80
2022/04/20 03:32:28;;;;;;;32.47;21.52;;;7.70;99.90;;;7.49;100.00;98445.31;4983738;28;118394;-76
2022/04/20 03:34:57;;;;;;;34.80;21.38;;;7.70;99.90;;;7.41;100.00;98454.19;4984076;28;119262;-79
2022/04/20 03:37:25;;;;;;;30.40;19.60;;;7.70;99.90;;;7.40;100.00;98452.59;4982069;28;130977;-78
2022/04/20 03:39:54;;;;;;;35.15;20.38;;;7.70;99.90;;;7.43;100.00;98462.78;4983975;28;129551;-73
2022/04/20 03:42:23;;;;;;;32.95;20.75;;;7.70;99.90;;;7.52;100.00;98449.28;4983886;28;119189;-82
2022/04/20 03:44:53;;;;;;;37.00;21.23;;;7.80;99.90;;;7.58;100.00;98460.75;4987903;28;119692;-79
2022/04/20 03:47:24;;;;;;;39.78;22.98;;;7.80;99.90;;;7.53;100.00;98461.69;4987034;28;129413;-75
2022/04/20 03:49:53;;;;;;;37.67;21.92;;;7.80;99.90;;;7.50;100.00;98467.72;4953756;28;128525;-72
2022/04/20 03:52:21;;;;;;;37.88;22.98;;;7.80;99.90;;;7.44;100.00;98467.06;4982783;28;119567;-76
2022/04/20 03:54:50;;;;;;;40.22;22.25;;;7.80;99.90;;;7.48;100.00;98469.94;4989325;28;119118;-76
2022/04/20 03:57:19;;;;;;;35.40;22.02;;;7.80;99.90;;;7.47;100.00;98473.75;4987488;28;129123;-75
2022/04/20 03:59:48;;;;;;;45.15;22.92;;;7.80;99.90;;;7.45;100.00;98471.38;5000351;28;129060;-74
2022/04/20 04:02:19;;;;;;;35.15;23.67;;;7.80;99.90;;;7.50;100.00;98463.09;4979699;28;119514;-73
2022/04/20 04:04:55;;;;;;;39.72;24.27;;;7.80;99.90;;;7.50;100.00;98463.09;4997780;28;119907;-76
2022/04/20 04:07:38;;;;;;;35.20;21.95;;;7.80;99.90;;;7.49;100.00;98477.72;4985165;28;129774;-76
2022/04/20 04:10:10;;;;;;;40.95;22.95;;;7.80;99.90;;;7.57;100.00;98473.44;5003511;28;128850;-79
2022/04/20 04:12:39;;;;;;;38.17;23.60;;;7.80;99.90;;;7.49;100.00;98472.31;5018536;28;122094;-74
2022/04/20 04:15:08;;;;;;;40.60;23.80;;;7.80;99.90;;;7.58;100.00;98479.66;5001030;28;122322;-79
2022/04/20 04:17:38;;;;;;;39.47;23.95;;;7.80;99.90;;;7.58;100.00;98485.03;5004293;28;129237;-77
2022/04/20 04:20:11;;;;;;;40.55;23.35;;;7.80;99.90;;;7.49;100.00;98485.81;4999746;28;129651;-72
2022/04/20 04:22:40;;;;;;;36.03;22.25;;;7.80;99.90;;;7.53;100.00;98484.06;5020782;28;119128;-78
2022/04/20 04:25:23;;;;;;;38.80;23.27;;;7.80;99.90;;;7.50;100.00;98484.72;4985338;28;119048;-74
2022/04/20 04:27:52;;;;;;;34.63;21.30;;;7.80;99.90;;;7.43;100.00;98481.66;4997272;28;130114;-76
2022/04/20 04:30:22;;;;;;;36.97;20.73;;;7.80;99.90;;;7.47;100.00;98479.94;4985815;28;129344;-79
2022/04/20 04:33:03;;;;;;;38.58;23.27;;;7.80;99.90;;;7.47;100.00;98484.56;5000856;28;119620;-77
2022/04/20 04:35:36;;;;;;;34.90;20.95;;;7.80;99.90;;;7.62;100.00;98485.97;5019711;28;119346;-77
2022/04/20 04:38:07;;;;;;;32.58;21.25;;;7.80;99.90;;;7.54;100.00;98482.97;5001691;28;129905;-75
2022/04/20 04:40:36;;;;;;;34.85;21.77;;;7.80;99.90;;;7.59;100.00;98492.00;5001453;28;130115;-76
2022/04/20 04:43:06;;;;;;;33.95;21.67;;;7.80;99.90;;;7.51;100.00;98489.00;5001407;28;119500;-71
2022/04/20 04:48:39;;;;;;;34.20;21.77;;;7.80;99.90;;;7.49;100.00;98493.13;5004378;28;129650;-71
2022/04/20 04:51:12;;;;;;;33.40;22.13;;;7.80;99.90;;;7.47;100.00;98485.34;4989889;28;128520;-76
2022/04/20 04:53:44;;;;;;;36.38;21.80;;;7.80;99.90;;;7.49;100.00;98493.91;5021254;28;119134;-74
2022/04/20 04:56:16;;;;;;;34.33;21.90;;;7.80;99.90;;;7.47;100.00;98490.75;5011258;28;120247;-75
2022/04/20 04:58:48;;;;;;;37.30;22.08;;;7.80;99.90;;;7.61;100.00;98500.63;4992568;28;129573;-75
2022/04/20 05:01:18;;;;;;;32.65;21.33;;;7.80;99.90;;;7.51;100.00;98499.81;5004504;28;129806;-73
2022/04/20 05:03:47;;;;;;;31.23;20.65;;;7.80;99.90;;;7.55;100.00;98500.75;5003345;28;120891;-74
2022/04/20 05:06:19;;;;;;;36.25;21.20;;;7.90;99.90;;;7.41;100.00;98496.59;5001634;28;122246;-72
2022/04/20 05:09:08;;;;;;;31.40;19.90;;;7.90;99.90;;;7.63;100.00;98509.19;4991750;28;129091;-77
2022/04/20 05:11:40;;;;;;;32.95;19.60;;;7.90;99.90;;;7.69;100.00;98511.41;5007649;28;129542;-76
2022/04/20 05:14:13;;;;;;;32.28;19.88;;;7.90;99.90;;;7.80;100.00;98506.50;5028827;28;119243;-76
2022/04/20 05:16:43;;;;;;;29.38;19.45;;;7.90;99.90;;;7.87;100.00;98509.53;4989915;28;118352;-75
2022/04/20 05:19:14;;;;;;;28.83;18.38;;;8.00;99.90;;;7.83;100.00;98524.78;5003932;28;129642;-76
2022/04/20 05:21:44;;;;;;;28.52;18.30;;;7.90;99.90;;;7.85;100.00;98517.16;5004231;28;129473;-72
2022/04/20 05:24:14;;;;;;;26.83;17.75;;;8.00;99.90;;;7.74;100.00;98523.97;5003703;28;120122;-76
2022/04/20 05:26:43;;;;;;;25.48;17.17;;;8.00;99.90;;;7.66;100.00;98520.13;5006341;28;118329;-73
2022/04/20 05:29:12;;;;;;;26.33;17.02;;;8.00;99.90;;;7.78;100.00;98516.84;5000550;28;129948;-76
2022/04/20 05:31:59;;;;;;;21.58;15.38;;;8.00;99.90;;;7.84;100.00;98520.97;5021131;28;130059;-75
2022/04/20 05:34:33;;;;;;;24.77;15.50;;;8.10;99.90;;;7.97;100.00;98519.22;5001825;28;119938;-77
2022/04/20 05:42:42;;;;;;;24.48;16.20;;;8.10;99.90;;;7.83;100.00;98524.78;5001394;28;129391;-79
2022/04/20 05:45:10;;;;;;;21.40;14.30;;;8.00;99.90;;;7.88;100.00;98521.94;5004501;28;119250;-79
2022/04/20 05:47:39;;;;;;;23.27;14.90;;;8.10;99.90;;;7.98;100.00;98518.13;4989197;28;118446;-76
2022/04/20 05:50:10;;;;;;;22.55;15.38;;;8.10;99.90;;;8.11;100.00;98521.75;5003671;28;130597;-76
2022/04/20 05:52:40;;;;;;;23.60;15.68;;;8.10;99.90;;;8.09;100.00;98526.69;5002374;28;129641;-79
2022/04/20 05:55:09;;;;;;;19.75;14.02;;;8.10;99.90;;;7.99;100.00;98516.97;5021448;28;121857;-78
2022/04/20 05:57:40;;;;;;;18.13;13.23;;;8.10;99.90;;;7.90;100.00;98525.09;5000595;28;121734;-70
2022/04/20 06:00:10;;;;;;;20.52;14.20;;;8.10;99.90;;;8.05;100.00;98531.13;5000161;28;129839;-72
2022/04/20 06:02:49;;;;;;;17.88;12.45;;;8.10;99.90;;;8.18;100.00;98534.78;5003434;28;130446;-72
2022/04/20 06:05:21;;;;;;;17.55;12.30;;;8.10;99.90;;;8.07;100.00;98529.72;5003409;28;118627;-70
2022/04/20 06:08:04;;;;;;;17.75;11.48;;;8.10;99.90;;;7.92;100.00;98528.28;5003489;28;118996;-70
2022/04/20 06:10:57;;;;;;;17.63;11.57;;;8.10;99.90;;;8.06;100.00;98527.34;4997460;28;129921;-70
2022/04/20 06:13:27;;;;;;;16.55;11.18;;;8.10;99.90;;;8.16;100.00;98526.22;5003575;28;129104;-70
2022/04/20 06:16:08;;;;;;;13.77;11.00;;;8.20;99.90;;;7.94;100.00;98525.25;5020377;28;119071;-71
2022/04/20 06:18:49;;;;;;;14.02;9.80;;;8.10;99.90;;;7.88;100.00;98530.03;5000537;28;119749;-75
2022/04/20 06:21:24;;;;;;;13.38;10.65;;;8.10;99.90;;;7.95;100.00;98531.44;5002105;28;129083;-75
2022/04/20 06:24:13;;;;;;;13.95;10.18;;;8.10;99.90;;;8.19;100.00;98526.34;5000922;28;129466;-73
2022/04/20 06:26:57;;;;;;;15.10;10.13;;;8.10;99.90;;;8.18;100.00;98535.59;5001590;28;119628;-74
2022/04/20 06:29:37;;;;;;;14.15;10.10;;;8.10;99.90;;;8.06;100.00;98528.13;5002886;28;119787;-73
2022/04/20 06:32:41;;;;;;;17.02;10.23;;;8.10;99.90;;;8.14;100.00;98529.22;4942626;28;130000;-74
2022/04/20 06:35:25;;;;;;;14.65;10.27;;;8.10;99.90;;;8.21;100.00;98524.16;4995531;28;128876;-73
2022/04/20 06:38:13;;;;;;;15.63;10.25;;;8.20;99.90;;;8.12;100.00;98544.16;5000157;28;120408;-73
2022/04/20 06:41:19;;;;;;;15.43;10.57;;;8.20;99.90;;;8.18;100.00;98545.59;5001859;28;120026;-75
2022/04/20 06:44:06;;;;;;;14.77;10.30;;;8.10;99.90;;;7.94;100.00;98540.69;5001010;28;129608;-76
2022/04/20 06:46:34;;;;;;;13.35;9.93;;;8.10;99.90;;;8.08;100.00;98536.69;5001171;28;129421;-77
2022/04/20 06:49:19;;;;;;;14.88;10.52;;;8.10;99.90;;;8.20;100.00;98533.34;5001858;28;121676;-72
2022/04/20 07:00:19;;;;;;;16.05;10.70;;;8.20;99.90;;;8.44;100.00;98538.28;4999991;28;120478;-73
2022/04/20 07:03:11;;;;;;;17.52;10.85;;;8.20;99.90;;;8.17;100.00;98539.41;4974806;28;119977;-72
2022/04/20 07:06:09;;;;;;;15.10;9.95;;;8.20;99.90;;;8.11;100.00;98548.78;4998272;28;130296;-73
2022/04/20 07:08:57;;;;;;;15.32;10.55;;;8.10;99.90;;;8.09;100.00;98548.31;4999799;28;129677;-71
2022/04/20 07:11:32;;;;;;;13.77;10.27;;;8.10;99.90;;;8.15;100.00;98541.63;5002334;28;119167;-72
2022/04/20 07:14:03;;;;;;;14.13;8.98;;;8.10;99.90;;;8.28;100.00;98545.28;5001427;28;119568;-77
2022/04/20 07:16:31;;;;;;;13.68;8.82;;;8.20;99.90;;;8.21;100.00;98544.97;5001257;28;129269;-71
2022/04/20 07:19:15;;;;;;;13.23;8.73;;;8.20;99.90;;;8.24;100.00;98550.53;5002936;28;130233;-73
2022/04/20 07:22:05;;;;;;;11.70;8.57;;;8.20;99.90;;;8.22;100.00;98557.38;4985968;28;118486;-73
2022/04/20 07:24:47;;;;;;;14.52;8.45;;;8.20;99.90;;;8.21;100.00;98551.19;5002151;28;119382;-72
2022/04/20 07:27:42;;;;;;;11.40;8.38;;;8.20;99.90;;;8.66;100.00;98555.44;4986767;28;128429;-76
2022/04/20 07:30:31;;;;;;;12.88;8.88;;;8.40;99.90;;;9.08;100.00;98555.63;4998599;28;129842;-75
2022/04/20 07:33:18;;;;;;;10.65;7.50;;;8.60;99.90;;;8.87;100.00;98560.97;5002130;28;118479;-76
2022/04/20 07:36:12;;;;;;;10.63;7.97;;;8.60;99.90;;;8.82;100.00;98548.41;5002882;28;119596;-77
2022/04/20 07:39:00;;;;;;;11.18;8.25;;;8.60;99.90;;;8.95;100.00;98556.63;4999801;28;129692;-78
2022/04/20 07:41:46;;;;;;;12.73;8.05;;;8.60;99.90;;;8.71;100.00;98551.75;5000597;28;129443;-75
2022/04/20 07:44:35;;;;;;;9.82;7.32;;;8.50;99.90;;;8.56;100.00;98561.97;4979931;28;120827;-77
2022/04/20 07:47:15;;;;;;;10.73;7.78;;;8.50;99.90;;;8.46;100.00;98570.41;5002732;28;122256;-76
2022/04/20 07:50:19;;;;;;;11.90;7.97;;;8.40;99.90;;;8.61;100.00;98564.50;4995568;28;129861;-77
2022/04/20 07:53:09;;;;;;;13.93;8.20;;;8.40;99.90;;;8.82;100.00;98566.53;5001311;28;129411;-79
2022/04/20 07:55:56;;;;;;;10.63;7.90;;;8.40;99.90;;;8.57;100.00;98562.75;5000763;28;119804;-77
2022/04/20 07:58:39;;;;;;;10.52;7.15;;;8.40;99.90;;;8.52;100.00;98569.13;5002999;28;119905;-75
2022/04/20 08:01:24;;;;;;;12.10;7.85;;;8.40;99.90;;;8.23;100.00;98573.28;5000578;28;129915;-77
2022/04/20 08:03:57;;;;;;;9.32;6.82;;;8.30;99.90;;;8.20;100.00;98573.91;5000943;28;129352;-75
2022/04/20 08:06:46;;;;;;;11.52;8.02;;;8.20;99.90;;;8.26;100.00;98583.44;5002543;28;117811;-77
2022/04/20 08:09:15;;;;;;;11.77;8.05;;;8.30;99.90;;;8.05;100.00;98574.38;5000849;28;119575;-76
2022/04/20 08:11:43;;;;;;;10.57;7.15;;;8.20;99.90;;;8.04;100.00;98580.88;5001706;28;130123;-77
2022/04/20 08:14:15;;;;;;;11.93;7.75;;;8.20;99.90;;;8.18;100.00;98584.25;5001174;28;130639;-78
2022/04/20 08:16:48;;;;;;;11.32;7.55;;;8.20;99.90;;;8.34;100.00;98597.28;5003527;28;119307;-75
2022/04/20 08:19:27;;;;;;;11.27;7.45;;;8.20;99.90;;;8.26;100.00;98580.75;4999759;28;119752;-77
2022/04/20 08:22:15;;;;;;;10.57;7.35;;;8.20;99.90;;;8.27;100.00;98593.16;4995628;28;130024;-74
2022/04/20 08:24:45;;;;;;;9.70;6.65;;;8.20;99.90;;;8.20;100.00;98590.13;5004114;28;129547;-76
2022/04/20 08:27:14;;;;;;;8.00;5.70;;;8.20;99.90;;;8.16;100.00;98591.84;5001794;28;120598;-73
2022/04/20 08:29:45;;;;;;;8.73;6.32;;;8.20;99.90;;;8.38;100.00;98598.22;5003322;28;118242;-77
2022/04/20 08:32:13;;;;;;;9.70;6.63;;;8.30;99.90;;;8.27;100.00;98597.75;4999513;28;129682;-77
2022/04/20 08:34:43;;;;;;;6.70;5.25;;;8.30;99.90;;;8.45;100.00;98601.28;4999612;28;129961;-73
2022/04/20 08:37:12;;;;;;;7.45;5.53;;;8.40;99.90;;;8.43;100.00;98607.00;4999057;28;122090;-75
2022/04/20 08:39:41;;;;;;;6.88;5.45;;;8.40;99.90;;;8.53;100.00;98599.69;5002362;28;120560;-76
2022/04/20 08:42:12;;;;;;;7.10;5.40;;;8.40;99.90;;;8.38;100.00;98603.63;5000410;28;130227;-77
2022/04/20 08:44:47;;;;;;;9.13;5.68;;;8.30;99.90;;;8.25;100.00;98606.16;5000799;28;129030;-77
2022/04/20 08:47:21;;;;;;;7.30;5.50;;;8.30;99.90;;;8.19;100.00;98606.66;4999657;28;120789;-78
2022/04/20 08:49:52;;;;;;;8.60;6.22;;;8.30;99.90;;;8.31;100.00;98614.16;5000352;28;119123;-78
2022/04/20 08:52:42;;;;;;;8.07;5.75;;;8.20;99.90;;;8.21;100.00;98599.81;4998320;28;130366;-75
2022/04/20 08:55:13;;;;;;;9.18;5.90;;;8.20;99.90;;;7.99;100.00;98610.75;5002226;28;128522;-76
2022/04/20 08:57:44;;;;;;;7.95;5.55;;;8.20;99.90;;;8.22;100.00;98609.50;5000230;28;119662;-77
2022/04/20 09:00:20;;;;;;;8.20;6.40;;;8.30;99.90;;;8.32;100.00;98605.72;4999366;28;119286;-76
2022/04/20 09:02:52;;;;;;;7.85;5.60;;;8.30;99.90;;;8.68;100.00;98606.50;4997863;28;130543;-76
2022/04/20 09:05:22;;;;;;;7.63;5.50;;;8.40;99.90;;;8.81;100.00;98608.25;4997786;28;129340;-79
2022/04/20 09:07:50;;;;;;;8.52;5.25;;;8.50;99.90;;;8.68;100.00;98603.78;5000565;28;119605;-76
2022/04/20 09:10:19;;;;;;;6.63;4.88;;;8.50;99.90;;;8.74;100.00;98607.91;4999078;28;119390;-78
2022/04/20 09:13:02;;;;;;;6.88;5.07;;;8.50;99.90;;;8.92;100.00;98604.06;4999796;28;130247;-74
2022/04/20 09:15:33;;;;;;;7.75;4.65;;;8.60;99.90;;;8.97;100.00;98609.31;4999784;28;129677;-77
2022/04/20 09:18:02;;;;;;;6.95;5.07;;;8.60;99.90;;;8.98;100.00;98605.47;4999001;28;120053;-79
2022/04/20 09:20:34;;;;;;;8.13;5.35;;;8.70;99.90;;;9.32;100.00;98611.91;4999593;28;119568;-79
2022/04/20 09:23:05;;;;;;;6.85;4.50;;;8.80;99.90;;;9.35;100.00;98610.47;4997638;28;129264;-81
2022/04/20 09:25:36;;;;;;;6.50;4.80;;;8.80;99.90;;;8.89;100.00;98607.41;5000362;28;128251;-71
2022/04/20 09:28:05;;;;;;;6.60;4.55;;;8.70;99.90;;;8.90;100.00;98613.66;5000662;28;120702;-78
2022/04/20 09:30:38;;;;;;;8.60;5.40;;;8.60;99.90;;;9.19;100.00;98618.31;4998959;28;121863;-77
2022/04/20 09:33:08;;;;;;;8.57;4.70;;;8.70;99.90;;;9.03;100.00;98625.38;5001971;28;130146;-78
2022/04/20 09:35:46;;;;;;;6.97;4.00;;;8.70;99.90;;;9.00;100.00;98630.31;5001933;28;130017;-76
2022/04/20 09:38:19;;;;;;;5.68;3.70;;;8.70;99.90;;;9.20;100.00;98628.03;5004350;28;119299;-77
2022/04/20 09:41:08;;;;;;;6.13;3.78;;;8.70;99.90;;;8.85;100.00;98638.97;5002619;28;119988;-79
2022/04/20 09:43:37;;;;;;;6.70;4.00;;;8.60;99.90;;;8.98;100.00;98627.13;5003686;28;129836;-77
2022/04/20 09:48:50;;;;;;;9.25;3.80;;;8.60;99.90;;;8.80;100.00;98628.28;5002584;28;129710;-77
2022/04/20 09:49:06;;;;;;;6.18;4.10;;;8.60;99.90;;;8.93;100.00;98638.13;5002063;28;119733;-77
2022/04/20 09:51:39;;;;;;;6.68;4.15;;;8.70;99.90;;;8.88;100.00;98646.44;5004407;28;118830;-77
2022/04/20 09:54:26;;;;;;;7.20;4.85;;;8.60;99.90;;;8.51;100.00;98645.97;5000964;28;129834;-74
2022/04/20 09:57:11;;;;;;;5.82;3.97;;;8.50;99.90;;;8.67;100.00;98643.59;5002002;28;129724;-75
2022/04/20 09:59:55;;;;;;;6.35;4.57;;;8.50;99.90;;;8.38;100.00;98641.47;5001901;28;119964;-72
2022/04/20 10:02:23;;;;;;;7.10;4.85;;;8.40;99.90;;;8.58;100.00;98640.88;5002333;28;119418;-77
2022/04/20 10:04:52;;;;;;;7.22;4.85;;;8.50;99.90;;;8.56;100.00;98643.09;5001742;28;130178;-79
2022/04/20 10:07:22;;;;;;;6.88;4.68;;;8.40;99.90;;;8.44;100.00;98651.06;5001583;28;129348;-70
2022/04/20 10:09:51;;;;;;;5.88;4.40;;;8.40;99.90;;;8.39;100.00;98653.91;5002289;28;119747;-75
2022/04/20 10:12:20;;;;;;;7.28;5.00;;;8.40;99.90;;;8.65;100.00;98653.94;5002178;28;119949;-76
2022/04/20 10:17:46;;;;;;;8.07;4.85;;;8.60;99.90;;;8.77;100.00;98661.38;5003494;28;128837;-77
2022/04/20 10:20:15;;;;;;;6.78;4.50;;;8.50;99.90;;;9.11;100.00;98662.47;5000767;28;122804;-78
2022/04/20 10:22:46;;;;;;;6.00;3.97;;;8.70;99.90;;;9.13;100.00;98649.38;5001923;28;121958;-75
2022/04/20 10:25:15;;;;;;;6.05;4.32;;;8.70;99.90;;;8.72;100.00;98656.16;5001940;28;130814;-76
2022/04/20 10:28:13;;;;;;;7.22;4.75;;;8.60;99.90;;;8.90;100.00;98646.91;5002040;28;129458;-75
2022/04/20 10:31:07;;;;;;;6.47;4.55;;;8.60;99.90;;;8.76;100.00;98651.69;5003317;28;118958;-77
2022/04/20 10:33:36;;;;;;;6.50;4.20;;;8.60;99.90;;;8.91;100.00;98659.31;5003348;28;119132;-78
2022/04/20 10:36:31;;;;;;;5.32;3.60;;;8.60;99.90;;;8.95;100.00;98660.25;5004268;28;129514;-78
2022/04/20 10:39:22;;;;;;;5.43;3.47;;;8.60;99.90;;;8.50;100.00;98662.53;5004427;28;129149;-75
2022/04/20 10:42:30;;;;;;;5.55;3.60;;;8.50;99.90;;;8.38;100.00;98663.09;5000350;28;120250;-77
2022/04/20 10:45:03;;;;;;;5.88;4.15;;;8.50;99.90;;;8.54;100.00;98669.69;4946910;28;120146;-80
2022/04/20 10:47:35;;;;;;;7.43;3.75;;;8.50;99.90;;;8.64;100.00;98669.34;4999704;28;129807;-77
2022/04/20 10:50:19;;;;;;;5.72;3.53;;;8.50;99.90;;;8.66;100.00;98670.94;5001226;28;129510;-77
2022/04/20 10:52:52;;;;;;;5.40;3.88;;;8.50;99.90;;;8.61;100.00;98667.28;5001316;28;119800;-78
2022/04/20 10:55:54;;;;;;;6.38;3.80;;;8.50;99.90;;;8.51;100.00;98664.91;5003307;28;118250;-77
2022/04/20 10:58:23;;;;;;;5.93;3.90;;;8.40;99.90;;;8.31;100.00;98681.72;4998544;28;129909;-79
2022/04/20 11:01:11;;;;;;;6.47;3.67;;;8.30;99.90;;;8.27;100.00;98676.94;5000889;28;129614;-78
2022/04/20 11:04:06;;;;;;;7.40;3.70;;;8.30;99.90;;;8.25;100.00;98681.06;5000935;28;119900;-77
2022/04/20 11:07:16;;;;;;;5.15;3.25;;;8.30;99.90;;;8.01;100.00;98682.31;4999267;28;119098;-75
2022/04/20 11:10:00;;;;;;;6.15;4.38;;;8.20;99.90;;;8.13;100.00;98678.19;4982656;28;128798;-73